Time;durP1;ratioP1;P1;durP2;ratioP2;P2;SDS_P1;SDS_P2;PMS_P1;PMS_P2;Temp;Humidity;BMP_temperature;BMP_pressure;BME280_temperature;BME280_humidity;BME280_pressure;Samples;Min_cycle;Max_cycle;Signal;HPM_P1;HPM_P2
2022/09/11 00:00:28;;;;;;;;;;;13.40;99.90;;;;;;5074715;28;20361;-77
2022/09/11 00:02:53;;;;;;;;;;;13.30;99.90;;;;;;5074940;28;19908;-76
2022/09/11 00:05:19;;;;;;;;;;;13.30;99.90;;;;;;5074160;28;19904;-77
2022/09/11 00:07:46;;;;;;;;;;;13.20;99.90;;;;;;5074796;28;19916;-76
2022/09/11 00:10:11;;;;;;;;;;;13.20;99.90;;;;;;5074306;28;19912;-76
2022/09/11 00:12:37;;;;;;;;;;;13.10;99.90;;;;;;5074705;28;20014;-76
2022/09/11 00:15:02;;;;;;;;;;;13.10;99.90;;;;;;5074232;28;20250;-76
2022/09/11 00:17:28;;;;;;;;;;;13.00;99.90;;;;;;5073922;28;19935;-76
2022/09/11 00:19:54;;;;;;;;;;;13.00;99.90;;;;;;5074739;28;19909;-76
2022/09/11 00:22:19;;;;;;;;;;;12.90;99.90;;;;;;5072626;28;20014;-77
2022/09/11 00:24:46;;;;;;;;;;;12.80;99.90;;;;;;5074403;28;20038;-76
2022/09/11 00:27:11;;;;;;;;;;;12.80;99.90;;;;;;5073602;28;20357;-76
2022/09/11 00:29:37;;;;;;;;;;;12.70;99.90;;;;;;5074570;28;19923;-76
2022/09/11 00:32:03;;;;;;;;;;;12.70;99.90;;;;;;5073886;28;20371;-75
2022/09/11 00:34:28;;;;;;;;;;;12.70;99.90;;;;;;5074417;28;20297;-77
2022/09/11 00:36:54;;;;;;;;;;;12.70;99.90;;;;;;5074852;28;20265;-76
2022/09/11 00:39:20;;;;;;;;;;;12.70;99.90;;;;;;5073683;28;20014;-76
2022/09/11 00:41:45;;;;;;;;;;;12.60;99.90;;;;;;5074113;28;20361;-76
2022/09/11 00:44:17;;;;;;;;;;;12.60;99.90;;;;;;5073546;28;19920;-76
2022/09/11 00:46:43;;;;;;;;;;;12.50;99.90;;;;;;5074445;28;19916;-76
2022/09/11 00:49:13;;;;;;;;;;;12.50;99.90;;;;;;5073169;28;19917;-76
2022/09/11 00:51:40;;;;;;;;;;;12.50;99.90;;;;;;5073923;28;19948;-76
2022/09/11 00:54:08;;;;;;;;;;;12.50;99.90;;;;;;5073459;28;19908;-75
2022/09/11 00:56:36;;;;;;;;;;;12.40;99.90;;;;;;5074556;28;19909;-76
2022/09/11 00:59:02;;;;;;;;;;;12.50;99.90;;;;;;5074008;28;19909;-76
2022/09/11 01:01:27;;;;;;;;;;;12.50;99.90;;;;;;5072228;28;20380;-77
2022/09/11 01:03:54;;;;;;;;;;;12.40;99.90;;;;;;5073628;28;19908;-76
2022/09/11 01:06:20;;;;;;;;;;;12.40;99.90;;;;;;5071951;28;19909;-76
2022/09/11 01:08:46;;;;;;;;;;;12.40;99.90;;;;;;5073671;28;20362;-76
2022/09/11 01:11:19;;;;;;;;;;;12.40;99.90;;;;;;5073041;28;19909;-76
2022/09/11 01:14:04;;;;;;;;;;;12.30;99.90;;;;;;5073231;28;19913;-76
2022/09/11 01:16:37;;;;;;;;;;;12.30;99.90;;;;;;5073460;28;19909;-75
2022/09/11 01:19:02;;;;;;;;;;;12.30;99.90;;;;;;5073672;28;19971;-75
2022/09/11 01:21:34;;;;;;;;;;;12.30;99.90;;;;;;5071747;28;19916;-76
2022/09/11 01:24:08;;;;;;;;;;;12.30;99.90;;;;;;5072172;28;19909;-76
2022/09/11 01:26:41;;;;;;;;;;;12.30;99.90;;;;;;5073061;28;20289;-76
2022/09/11 01:29:22;;;;;;;;;;;12.30;99.90;;;;;;5072655;28;19956;-75
2022/09/11 01:31:57;;;;;;;;;;;12.30;99.90;;;;;;5072079;28;19912;-76
2022/09/11 01:34:45;;;;;;;;;;;12.20;99.90;;;;;;5072680;28;19912;-75
2022/09/11 01:37:30;;;;;;;;;;;12.20;99.90;;;;;;5072863;28;20358;-75
2022/09/11 01:40:02;;;;;;;;;;;12.10;99.90;;;;;;5071747;28;19915;-75
2022/09/11 01:42:30;;;;;;;;;;;12.10;99.90;;;;;;5072533;28;19912;-75
2022/09/11 01:44:58;;;;;;;;;;;12.00;99.90;;;;;;5071341;28;19925;-76
2022/09/11 01:47:24;;;;;;;;;;;12.00;99.90;;;;;;5072678;28;19912;-75
2022/09/11 01:49:54;;;;;;;;;;;12.00;99.90;;;;;;5073120;28;19913;-75
2022/09/11 01:52:27;;;;;;;;;;;12.00;99.90;;;;;;5072384;28;19931;-75
2022/09/11 01:54:55;;;;;;;;;;;12.00;99.90;;;;;;5073257;28;19916;-76
2022/09/11 01:57:28;;;;;;;;;;;12.00;99.90;;;;;;5072736;28;19909;-75
2022/09/11 01:59:58;;;;;;;;;;;12.00;99.90;;;;;;5073296;28;19908;-76
2022/09/11 02:02:27;;;;;;;;;;;12.00;99.90;;;;;;5072311;28;20358;-76
2022/09/11 02:04:58;;;;;;;;;;;11.90;99.90;;;;;;5073110;28;19953;-76
2022/09/11 02:07:26;;;;;;;;;;;11.90;99.90;;;;;;5072286;28;19920;-76
2022/09/11 02:09:58;;;;;;;;;;;11.90;99.90;;;;;;5072367;28;19913;-76
2022/09/11 02:12:25;;;;;;;;;;;11.80;99.90;;;;;;5070900;28;19960;-76
2022/09/11 02:14:52;;;;;;;;;;;11.80;99.90;;;;;;5073012;28;19909;-75
2022/09/11 02:17:17;;;;;;;;;;;11.80;99.90;;;;;;5072306;28;20289;-75
2022/09/11 02:19:43;;;;;;;;;;;11.90;99.90;;;;;;5072658;28;19914;-76
2022/09/11 02:22:08;;;;;;;;;;;11.80;99.90;;;;;;5072350;28;19917;-75
2022/09/11 02:24:34;;;;;;;;;;;11.80;99.90;;;;;;5072726;28;19916;-75
2022/09/11 02:27:01;;;;;;;;;;;11.80;99.90;;;;;;5072597;28;20353;-75
2022/09/11 02:29:27;;;;;;;;;;;11.80;99.90;;;;;;5071046;28;19912;-76
2022/09/11 02:31:53;;;;;;;;;;;11.80;99.90;;;;;;5073146;28;19932;-75
2022/09/11 02:34:23;;;;;;;;;;;11.80;99.90;;;;;;5070980;28;19919;-76
2022/09/11 02:37:12;;;;;;;;;;;11.70;99.90;;;;;;5072774;28;19916;-75
2022/09/11 02:39:56;;;;;;;;;;;11.70;99.90;;;;;;5072665;28;20369;-75
2022/09/11 02:42:34;;;;;;;;;;;11.70;99.90;;;;;;5072068;28;19995;-76
2022/09/11 02:45:04;;;;;;;;;;;11.70;99.90;;;;;;5072789;28;19927;-76
2022/09/11 02:47:36;;;;;;;;;;;11.70;99.90;;;;;;5070953;28;19938;-75
2022/09/11 02:50:11;;;;;;;;;;;11.70;99.90;;;;;;5073079;28;19920;-75
2022/09/11 02:52:48;;;;;;;;;;;11.60;99.90;;;;;;5072376;28;19999;-75
2022/09/11 02:55:13;;;;;;;;;;;11.60;99.90;;;;;;5072470;28;19916;-75
2022/09/11 02:57:53;;;;;;;;;;;11.60;99.90;;;;;;5072581;28;19909;-75
2022/09/11 03:00:19;;;;;;;;;;;11.60;99.90;;;;;;5071963;28;19917;-75
2022/09/11 03:02:46;;;;;;;;;;;11.50;99.90;;;;;;5071127;28;20252;-75
2022/09/11 03:05:12;;;;;;;;;;;11.50;99.90;;;;;;5070997;28;20337;-75
2022/09/11 03:07:38;;;;;;;;;;;11.50;99.90;;;;;;5070965;28;19916;-75
2022/09/11 03:10:03;;;;;;;;;;;11.50;99.90;;;;;;5071085;28;20277;-75
2022/09/11 03:12:29;;;;;;;;;;;11.40;99.90;;;;;;5071802;28;19912;-75
2022/09/11 03:14:56;;;;;;;;;;;11.40;99.90;;;;;;5075884;28;19912;-77
2022/09/11 03:17:21;;;;;;;;;;;11.40;99.90;;;;;;5075023;28;19908;-75
2022/09/11 03:19:48;;;;;;;;;;;11.40;99.90;;;;;;5075579;28;19915;-75
2022/09/11 03:22:13;;;;;;;;;;;11.40;99.90;;;;;;5075084;28;19916;-74
2022/09/11 03:24:39;;;;;;;;;;;11.40;99.90;;;;;;5075618;28;19909;-75
2022/09/11 03:27:05;;;;;;;;;;;11.40;99.90;;;;;;5074328;28;19919;-76
2022/09/11 03:29:32;;;;;;;;;;;11.40;99.90;;;;;;5074932;28;19920;-75
2022/09/11 03:31:58;;;;;;;;;;;11.30;99.90;;;;;;5075695;28;19916;-75
2022/09/11 03:34:24;;;;;;;;;;;11.30;99.90;;;;;;5073868;28;19909;-75
2022/09/11 03:36:50;;;;;;;;;;;11.40;99.90;;;;;;5075496;28;19916;-75
2022/09/11 03:39:15;;;;;;;;;;;11.30;99.90;;;;;;5075137;28;19908;-75
2022/09/11 03:41:41;;;;;;;;;;;11.30;99.90;;;;;;5075799;28;19952;-75
2022/09/11 03:44:07;;;;;;;;;;;11.30;99.90;;;;;;5075393;28;19995;-75
2022/09/11 03:46:33;;;;;;;;;;;11.30;99.90;;;;;;5074742;28;19928;-75
2022/09/11 03:48:59;;;;;;;;;;;11.30;99.90;;;;;;5075085;28;19913;-75
2022/09/11 03:51:25;;;;;;;;;;;11.30;99.90;;;;;;5073219;28;19915;-75
2022/09/11 03:53:52;;;;;;;;;;;11.30;99.90;;;;;;5075686;28;19913;-75
2022/09/11 03:56:17;;;;;;;;;;;11.20;99.90;;;;;;5074806;28;19909;-75
2022/09/11 03:58:43;;;;;;;;;;;11.20;99.90;;;;;;5075115;28;19909;-75
2022/09/11 04:01:09;;;;;;;;;;;11.20;99.90;;;;;;5075040;28;19912;-75
2022/09/11 04:03:35;;;;;;;;;;;11.10;99.90;;;;;;5074494;28;20078;-75
2022/09/11 04:06:02;;;;;;;;;;;11.10;99.90;;;;;;5074968;28;20342;-75
2022/09/11 04:08:32;;;;;;;;;;;11.10;99.90;;;;;;5074085;28;19919;-77
2022/09/11 04:11:01;;;;;;;;;;;11.10;99.90;;;;;;5075010;28;19913;-77
2022/09/11 04:13:28;;;;;;;;;;;11.20;99.90;;;;;;5074308;28;19958;-76
2022/09/11 04:15:57;;;;;;;;;;;11.20;99.90;;;;;;5074816;28;19954;-75
2022/09/11 04:18:22;;;;;;;;;;;11.30;99.90;;;;;;5072746;28;19987;-77
2022/09/11 04:20:48;;;;;;;;;;;11.30;99.90;;;;;;5074397;28;20081;-76
2022/09/11 04:23:13;;;;;;;;;;;11.20;99.90;;;;;;5074093;28;19931;-76
2022/09/11 04:25:39;;;;;;;;;;;11.30;99.90;;;;;;5073670;28;19924;-76
2022/09/11 04:28:04;;;;;;;;;;;11.30;99.90;;;;;;5074470;28;19955;-76
2022/09/11 04:30:30;;;;;;;;;;;11.30;99.90;;;;;;5072585;28;20362;-77
2022/09/11 04:32:56;;;;;;;;;;;11.30;99.90;;;;;;5074745;28;19931;-75
2022/09/11 04:35:21;;;;;;;;;;;11.30;99.90;;;;;;5073517;28;19909;-76
2022/09/11 04:37:48;;;;;;;;;;;11.40;99.90;;;;;;5074649;28;20353;-75
2022/09/11 04:40:13;;;;;;;;;;;11.40;99.90;;;;;;5074369;28;19947;-76
2022/09/11 04:42:39;;;;;;;;;;;11.40;99.90;;;;;;5073646;28;19967;-76
2022/09/11 04:45:04;;;;;;;;;;;11.40;99.90;;;;;;5074573;28;19973;-76
2022/09/11 04:47:30;;;;;;;;;;;11.40;99.90;;;;;;5073185;28;20417;-75
2022/09/11 04:49:56;;;;;;;;;;;11.40;99.90;;;;;;5074141;28;20345;-76
2022/09/11 04:52:21;;;;;;;;;;;11.50;99.90;;;;;;5073481;28;20341;-74
2022/09/11 04:54:47;;;;;;;;;;;11.50;99.90;;;;;;5074037;28;19908;-75
2022/09/11 04:57:13;;;;;;;;;;;11.70;99.90;;;;;;5073771;28;20258;-75
2022/09/11 04:59:38;;;;;;;;;;;11.80;99.90;;;;;;5073187;28;19920;-75
2022/09/11 05:02:04;;;;;;;;;;;11.80;99.90;;;;;;5073482;28;19954;-75
2022/09/11 05:04:30;;;;;;;;;;;11.90;99.90;;;;;;5072986;28;20262;-75
2022/09/11 05:06:55;;;;;;;;;;;12.00;99.90;;;;;;5073589;28;19912;-75
2022/09/11 05:09:21;;;;;;;;;;;11.90;99.90;;;;;;5073376;28;19975;-74
2022/09/11 05:11:47;;;;;;;;;;;12.00;99.90;;;;;;5073678;28;19908;-76
2022/09/11 05:14:12;;;;;;;;;;;12.00;99.90;;;;;;5073612;28;20349;-76
2022/09/11 05:16:38;;;;;;;;;;;12.00;99.90;;;;;;5073063;28;20023;-76
2022/09/11 05:19:04;;;;;;;;;;;12.00;99.90;;;;;;5073435;28;19985;-76
2022/09/11 05:21:30;;;;;;;;;;;12.00;99.90;;;;;;5072996;28;19935;-76
2022/09/11 05:23:57;;;;;;;;;;;12.00;99.90;;;;;;5073356;28;19955;-75
2022/09/11 05:26:27;;;;;;;;;;;12.10;99.90;;;;;;5072889;28;19909;-76
2022/09/11 05:28:54;;;;;;;;;;;12.30;99.90;;;;;;5073647;28;20403;-75
2022/09/11 05:31:20;;;;;;;;;;;12.40;99.90;;;;;;5073340;28;19995;-76
2022/09/11 05:33:46;;;;;;;;;;;12.50;99.90;;;;;;5073170;28;19908;-75
2022/09/11 05:36:13;;;;;;;;;;;12.60;99.90;;;;;;5072479;28;19919;-75
2022/09/11 05:38:39;;;;;;;;;;;12.70;99.90;;;;;;5071483;28;19913;-77
2022/09/11 05:41:06;;;;;;;;;;;12.80;99.90;;;;;;5072882;28;19909;-73
2022/09/11 05:43:32;;;;;;;;;;;12.80;99.90;;;;;;5072413;28;19920;-74
2022/09/11 05:45:58;;;;;;;;;;;12.90;99.90;;;;;;5072921;28;19908;-74
2022/09/11 05:48:26;;;;;;;;;;;13.10;99.90;;;;;;5072473;28;20308;-74
2022/09/11 05:50:52;;;;;;;;;;;13.20;99.90;;;;;;5072797;28;19913;-75
2022/09/11 05:53:19;;;;;;;;;;;13.20;99.90;;;;;;5072935;28;19909;-74
2022/09/11 05:55:46;;;;;;;;;;;13.30;99.90;;;;;;5072567;28;19999;-75
2022/09/11 05:58:11;;;;;;;;;;;13.40;99.90;;;;;;5073030;28;19909;-74
2022/09/11 06:00:37;;;;;;;;;;;13.40;99.90;;;;;;5072442;28;19913;-75
2022/09/11 06:03:03;;;;;;;;;;;13.50;99.90;;;;;;5073060;28;19997;-75
2022/09/11 06:05:29;;;;;;;;;;;13.50;99.90;;;;;;5072396;28;19913;-75
2022/09/11 06:07:54;;;;;;;;;;;13.50;99.90;;;;;;5073185;28;20019;-76
2022/09/11 06:10:20;;;;;;;;;;;13.50;99.90;;;;;;5071672;28;20015;-75
2022/09/11 06:12:46;;;;;;;;;;;13.60;99.90;;;;;;5072432;28;19908;-75
2022/09/11 06:15:11;;;;;;;;;;;13.60;99.90;;;;;;5073005;28;19909;-75
2022/09/11 06:17:37;;;;;;;;;;;13.70;99.90;;;;;;5072608;28;20434;-75
2022/09/11 06:20:02;;;;;;;;;;;13.70;99.90;;;;;;5071674;28;20409;-75
2022/09/11 06:22:28;;;;;;;;;;;13.80;99.90;;;;;;5072851;28;19919;-75
2022/09/11 06:24:54;;;;;;;;;;;13.90;99.90;;;;;;5072697;28;19915;-75
2022/09/11 06:27:19;;;;;;;;;;;13.90;99.90;;;;;;5073349;28;19962;-75
2022/09/11 06:29:45;;;;;;;;;;;14.00;99.90;;;;;;5072852;28;20552;-75
2022/09/11 06:32:10;;;;;;;;;;;14.10;99.90;;;;;;5072935;28;19909;-75
2022/09/11 06:34:36;;;;;;;;;;;14.10;99.90;;;;;;5071647;28;19926;-75
2022/09/11 06:37:02;;;;;;;;;;;14.20;99.90;;;;;;5073482;28;19931;-75
2022/09/11 06:39:28;;;;;;;;;;;14.20;99.90;;;;;;5072352;28;20388;-75
2022/09/11 06:41:53;;;;;;;;;;;14.30;99.90;;;;;;5073354;28;19915;-75
2022/09/11 06:44:19;;;;;;;;;;;14.30;99.90;;;;;;5073092;28;19980;-75
2022/09/11 06:46:44;;;;;;;;;;;14.30;99.90;;;;;;5073231;28;19914;-75
2022/09/11 06:49:10;;;;;;;;;;;14.30;99.90;;;;;;5076651;28;19999;-75
2022/09/11 06:51:37;;;;;;;;;;;14.40;99.90;;;;;;5076061;28;20411;-75
2022/09/11 06:54:04;;;;;;;;;;;14.40;99.90;;;;;;5075593;28;19916;-75
2022/09/11 06:56:31;;;;;;;;;;;14.40;99.90;;;;;;5075686;28;19908;-75
2022/09/11 06:58:57;;;;;;;;;;;14.50;99.90;;;;;;5074807;28;19916;-75
2022/09/11 07:01:23;;;;;;;;;;;14.50;99.90;;;;;;5076591;28;19912;-76
2022/09/11 07:03:49;;;;;;;;;;;14.60;99.90;;;;;;5075515;28;19969;-75
2022/09/11 07:06:17;;;;;;;;;;;14.70;99.90;;;;;;5076126;28;19928;-75
2022/09/11 07:08:43;;;;;;;;;;;14.70;99.90;;;;;;5075427;28;19919;-75
2022/09/11 07:11:11;;;;;;;;;;;14.70;99.90;;;;;;5075958;28;19917;-76
2022/09/11 07:13:37;;;;;;;;;;;14.80;99.90;;;;;;5075280;28;19912;-75
2022/09/11 07:16:04;;;;;;;;;;;14.80;99.90;;;;;;5076310;28;19909;-76
2022/09/11 07:18:37;;;;;;;;;;;14.90;99.90;;;;;;5075108;28;19909;-74
2022/09/11 07:21:06;;;;;;;;;;;14.90;99.90;;;;;;5074395;28;20000;-76
2022/09/11 07:23:33;;;;;;;;;;;15.00;99.90;;;;;;5075225;28;19909;-75
2022/09/11 07:26:02;;;;;;;;;;;14.90;99.90;;;;;;5075475;28;19919;-74
2022/09/11 07:28:28;;;;;;;;;;;15.00;99.90;;;;;;5075542;28;20077;-73
2022/09/11 07:30:54;;;;;;;;;;;15.00;99.90;;;;;;5075687;28;20329;-75
2022/09/11 07:33:21;;;;;;;;;;;15.00;99.90;;;;;;5074347;28;19909;-76
2022/09/11 07:35:47;;;;;;;;;;;15.00;99.90;;;;;;5075048;28;20361;-75
2022/09/11 07:38:12;;;;;;;;;;;15.00;99.90;;;;;;5074431;28;19926;-75
2022/09/11 07:40:38;;;;;;;;;;;15.10;99.90;;;;;;5074972;28;19913;-75
2022/09/11 07:43:04;;;;;;;;;;;15.10;99.90;;;;;;5074980;28;19908;-76
2022/09/11 07:45:29;;;;;;;;;;;15.10;99.90;;;;;;5075290;28;20365;-74
2022/09/11 07:47:56;;;;;;;;;;;15.20;99.90;;;;;;5074902;28;19920;-75
2022/09/11 07:50:23;;;;;;;;;;;15.20;99.90;;;;;;5075191;28;19912;-76
2022/09/11 07:52:48;;;;;;;;;;;15.20;99.90;;;;;;5074559;28;20078;-75
2022/09/11 07:55:14;;;;;;;;;;;15.20;99.90;;;;;;5075085;28;19909;-75
2022/09/11 07:57:40;;;;;;;;;;;15.20;99.90;;;;;;5074238;28;19916;-75
2022/09/11 08:00:06;;;;;;;;;;;15.20;99.90;;;;;;5074567;28;19934;-75
2022/09/11 08:02:31;;;;;;;;;;;15.20;99.90;;;;;;5074290;28;19960;-74
2022/09/11 08:04:57;;;;;;;;;;;15.20;99.90;;;;;;5074528;28;20058;-76
2022/09/11 08:07:24;;;;;;;;;;;15.30;99.90;;;;;;5074646;28;20316;-76
2022/09/11 08:09:49;;;;;;;;;;;15.30;99.90;;;;;;5074320;28;20355;-77
2022/09/11 08:12:15;;;;;;;;;;;15.30;99.90;;;;;;5074881;28;19909;-77
2022/09/11 08:14:41;;;;;;;;;;;15.30;99.90;;;;;;5074293;28;19915;-76
2022/09/11 08:17:07;;;;;;;;;;;15.30;99.90;;;;;;5074692;28;20353;-77
2022/09/11 08:19:32;;;;;;;;;;;15.40;99.90;;;;;;5073254;28;19995;-76
2022/09/11 08:21:58;;;;;;;;;;;15.40;99.90;;;;;;5074332;28;20373;-77
2022/09/11 08:24:23;;;;;;;;;;;15.50;99.90;;;;;;5074536;28;20369;-76
2022/09/11 08:26:49;;;;;;;;;;;15.50;99.90;;;;;;5073752;28;19934;-77
2022/09/11 08:29:15;;;;;;;;;;;15.50;99.90;;;;;;5074808;28;20242;-76
2022/09/11 08:31:40;;;;;;;;;;;15.60;99.90;;;;;;5073594;28;19916;-76
2022/09/11 08:34:06;;;;;;;;;;;15.60;99.90;;;;;;5073045;28;19915;-76
2022/09/11 08:36:31;;;;;;;;;;;15.70;99.90;;;;;;5074340;28;19915;-77
2022/09/11 08:38:59;;;;;;;;;;;15.70;99.90;;;;;;5074162;28;19908;-77
2022/09/11 08:41:24;;;;;;;;;;;15.80;99.90;;;;;;5074209;28;19912;-77
2022/09/11 08:43:52;;;;;;;;;;;15.90;99.90;;;;;;5072153;28;19928;-77
2022/09/11 08:46:20;;;;;;;;;;;15.90;99.90;;;;;;5074507;28;19935;-76
2022/09/11 08:48:52;;;;;;;;;;;15.90;99.90;;;;;;5073553;28;19942;-77
2022/09/11 08:51:18;;;;;;;;;;;15.90;99.90;;;;;;5072719;28;19912;-77
2022/09/11 08:53:44;;;;;;;;;;;16.00;99.90;;;;;;5073419;28;20399;-76
2022/09/11 08:56:18;;;;;;;;;;;16.00;99.90;;;;;;5074168;28;19962;-77
2022/09/11 08:59:06;;;;;;;;;;;16.00;99.90;;;;;;5073047;28;19951;-76
2022/09/11 09:01:40;;;;;;;;;;;16.10;99.90;;;;;;5073486;28;19909;-76
2022/09/11 09:04:09;;;;;;;;;;;16.10;99.90;;;;;;5074118;28;19908;-77
2022/09/11 09:06:58;;;;;;;;;;;16.20;99.90;;;;;;5073517;28;20467;-75
2022/09/11 09:09:39;;;;;;;;;;;16.20;99.90;;;;;;5073379;28;19916;-77
2022/09/11 09:12:11;;;;;;;;;;;16.30;99.90;;;;;;5073005;28;20309;-77
2022/09/11 09:14:49;;;;;;;;;;;16.30;99.90;;;;;;5072956;28;19932;-75
2022/09/11 09:17:23;;;;;;;;;;;16.30;99.90;;;;;;5073059;28;19978;-76
2022/09/11 09:20:00;;;;;;;;;;;16.30;99.90;;;;;;5073291;28;19912;-76
2022/09/11 09:22:37;;;;;;;;;;;16.40;99.90;;;;;;5073018;28;19908;-76
2022/09/11 09:25:05;;;;;;;;;;;16.30;99.90;;;;;;5073026;28;20358;-76
2022/09/11 09:27:36;;;;;;;;;;;16.40;99.90;;;;;;5072953;28;20388;-76
2022/09/11 09:30:04;;;;;;;;;;;16.40;99.90;;;;;;5072727;28;20457;-76
2022/09/11 09:32:31;;;;;;;;;;;16.40;99.90;;;;;;5073306;28;20395;-76
2022/09/11 09:34:59;;;;;;;;;;;16.50;99.90;;;;;;5072834;28;20384;-76
2022/09/11 09:37:26;;;;;;;;;;;16.50;99.90;;;;;;5073041;28;19909;-77
2022/09/11 09:39:52;;;;;;;;;;;16.60;99.90;;;;;;5071498;28;20003;-75
2022/09/11 09:42:24;;;;;;;;;;;16.60;99.90;;;;;;5073105;28;20015;-76
2022/09/11 09:44:49;;;;;;;;;;;16.60;99.90;;;;;;5072326;28;20012;-76
2022/09/11 09:47:15;;;;;;;;;;;16.60;99.90;;;;;;5074222;28;20011;-76
2022/09/11 09:49:42;;;;;;;;;;;16.70;99.90;;;;;;5072785;28;19947;-76
2022/09/11 09:52:28;;;;;;;;;;;16.80;99.90;;;;;;5072821;28;19954;-77
2022/09/11 09:55:01;;;;;;;;;;;16.80;99.90;;;;;;5067478;28;20384;-79
2022/09/11 09:57:29;;;;;;;;;;;16.80;99.90;;;;;;5074162;28;19931;-79
2022/09/11 10:00:00;;;;;;;;;;;16.80;99.90;;;;;;5073018;28;19909;-80
2022/09/11 10:02:36;;;;;;;;;;;16.80;99.90;;;;;;5073014;28;19912;-79
2022/09/11 10:05:05;;;;;;;;;;;16.70;99.90;;;;;;5072200;28;19913;-79
2022/09/11 10:07:31;;;;;;;;;;;16.70;99.90;;;;;;5073020;28;19962;-84
2022/09/11 10:10:02;;;;;;;;;;;16.70;99.90;;;;;;5072023;28;19913;-83
2022/09/11 10:12:30;;;;;;;;;;;16.70;99.90;;;;;;5073332;28;19999;-83
2022/09/11 10:14:57;;;;;;;;;;;16.70;99.90;;;;;;5072527;28;19908;-82
2022/09/11 10:17:30;;;;;;;;;;;16.80;99.90;;;;;;5073759;28;20352;-82
2022/09/11 10:20:11;;;;;;;;;;;16.80;99.90;;;;;;5071729;28;19947;-85
2022/09/11 10:22:36;;;;;;;;;;;16.80;99.90;;;;;;5076431;28;19916;-84
2022/09/11 10:25:09;;;;;;;;;;;16.80;99.90;;;;;;5078316;28;19912;-84
2022/09/11 10:27:39;;;;;;;;;;;16.70;99.90;;;;;;5078815;28;19959;-83
2022/09/11 10:30:05;;;;;;;;;;;16.70;99.90;;;;;;5076638;28;19999;-83
2022/09/11 10:32:35;;;;;;;;;;;16.70;99.90;;;;;;5076810;28;20061;-85
2022/09/11 10:35:07;;;;;;;;;;;16.60;99.90;;;;;;5076985;28;20568;-82
2022/09/11 10:37:33;;;;;;;;;;;16.50;99.90;;;;;;5076718;28;19935;-84
2022/09/11 10:40:03;;;;;;;;;;;16.40;99.90;;;;;;5074845;28;19912;-83
2022/09/11 10:42:30;;;;;;;;;;;16.30;99.90;;;;;;5077309;28;19927;-83
2022/09/11 10:44:59;;;;;;;;;;;16.20;99.90;;;;;;5077176;28;19955;-84
2022/09/11 10:47:27;;;;;;;;;;;16.10;99.90;;;;;;5077607;28;19912;-83
2022/09/11 10:50:10;;;;;;;;;;;16.10;99.90;;;;;;5076759;28;19974;-84
2022/09/11 10:52:45;;;;;;;;;;;16.00;99.90;;;;;;5076319;28;19912;-84
2022/09/11 10:55:15;;;;;;;;;;;16.10;99.90;;;;;;5075841;28;20365;-82
2022/09/11 10:57:44;;;;;;;;;;;16.00;99.90;;;;;;5074911;28;19970;-83
2022/09/11 11:00:16;;;;;;;;;;;16.00;99.90;;;;;;5075915;28;20262;-83
2022/09/11 11:02:46;;;;;;;;;;;16.10;99.90;;;;;;5076222;28;19971;-84
2022/09/11 11:05:15;;;;;;;;;;;16.10;99.90;;;;;;5076237;28;19912;-82
2022/09/11 11:07:41;;;;;;;;;;;16.10;99.90;;;;;;5074706;28;19913;-84
2022/09/11 11:10:31;;;;;;;;;;;16.10;99.90;;;;;;5075279;28;20375;-85
2022/09/11 11:12:56;;;;;;;;;;;16.10;99.90;;;;;;5075571;28;19909;-86
2022/09/11 11:15:37;;;;;;;;;;;16.10;99.90;;;;;;5074532;28;19909;-84
2022/09/11 11:18:15;;;;;;;;;;;16.00;99.90;;;;;;5075177;28;19912;-83
2022/09/11 11:20:49;;;;;;;;;;;16.10;99.90;;;;;;5077336;28;19909;-84
2022/09/11 11:23:35;;;;;;;;;;;16.10;99.90;;;;;;5076885;28;19908;-83
2022/09/11 11:26:26;;;;;;;;;;;16.10;99.90;;;;;;5064053;28;20038;-84
2022/09/11 11:28:52;;;;;;;;;;;16.10;99.90;;;;;;5074610;28;19916;-84
2022/09/11 11:31:18;;;;;;;;;;;16.10;99.90;;;;;;5075737;28;19995;-83
2022/09/11 11:33:54;;;;;;;;;;;16.10;99.90;;;;;;5075808;28;20002;-82
2022/09/11 11:36:22;;;;;;;;;;;16.10;99.90;;;;;;5076566;28;19970;-81
2022/09/11 11:38:48;;;;;;;;;;;16.00;99.90;;;;;;5075130;28;19909;-81
2022/09/11 11:41:24;;;;;;;;;;;16.00;99.90;;;;;;5075157;28;19943;-79
2022/09/11 11:43:54;;;;;;;;;;;16.00;99.90;;;;;;5074443;28;19930;-77
2022/09/11 11:46:22;;;;;;;;;;;16.00;99.90;;;;;;5074546;28;20477;-77
2022/09/11 11:48:47;;;;;;;;;;;16.00;99.90;;;;;;5074265;28;19955;-77
2022/09/11 11:51:17;;;;;;;;;;;16.00;99.90;;;;;;5074365;28;19952;-78
2022/09/11 11:54:03;;;;;;;;;;;16.00;99.90;;;;;;5075243;28;19954;-80
2022/09/11 11:56:40;;;;;;;;;;;16.00;99.90;;;;;;5074874;28;19944;-81
2022/09/11 11:59:25;;;;;;;;;;;16.00;99.90;;;;;;5074115;28;20694;-83
2022/09/11 12:02:09;;;;;;;;;;;16.00;99.90;;;;;;5074704;28;19944;-82
2022/09/11 12:04:47;;;;;;;;;;;16.00;99.90;;;;;;5075417;28;20381;-84
2022/09/11 12:07:15;;;;;;;;;;;16.00;99.90;;;;;;5075177;28;19913;-82
2022/09/11 12:09:48;;;;;;;;;;;16.00;99.90;;;;;;5074613;28;19942;-81
2022/09/11 12:12:15;;;;;;;;;;;16.00;99.90;;;;;;5074542;28;19915;-81
2022/09/11 12:14:47;;;;;;;;;;;16.00;99.90;;;;;;5074983;28;19956;-81
2022/09/11 12:17:29;;;;;;;;;;;16.00;99.90;;;;;;5074903;28;20015;-82
2022/09/11 12:20:07;;;;;;;;;;;16.00;99.90;;;;;;5074030;28;19909;-84
2022/09/11 12:22:36;;;;;;;;;;;16.00;99.90;;;;;;5073721;28;19921;-85
2022/09/11 12:25:02;;;;;;;;;;;16.00;99.90;;;;;;5073585;28;19909;-85
2022/09/11 12:27:51;;;;;;;;;;;16.10;99.90;;;;;;5076030;28;19913;-84
2022/09/11 12:30:16;;;;;;;;;;;16.10;99.90;;;;;;5074525;28;19913;-83
2022/09/11 12:32:45;;;;;;;;;;;16.10;99.90;;;;;;5075221;28;20004;-84
2022/09/11 12:35:30;;;;;;;;;;;16.20;99.90;;;;;;5072574;28;19905;-82
2022/09/11 12:38:05;;;;;;;;;;;16.20;99.90;;;;;;5073566;28;19908;-82
2022/09/11 12:40:38;;;;;;;;;;;16.20;99.90;;;;;;5074416;28;19908;-81
2022/09/11 12:43:15;;;;;;;;;;;16.30;99.90;;;;;;5073862;28;19928;-80
2022/09/11 12:45:42;;;;;;;;;;;16.30;99.90;;;;;;5072657;28;19908;-79
2022/09/11 12:48:31;;;;;;;;;;;16.40;99.90;;;;;;5073022;28;20324;-77
2022/09/11 12:50:57;;;;;;;;;;;16.40;99.90;;;;;;5073047;28;19913;-76
2022/09/11 12:53:26;;;;;;;;;;;16.50;99.90;;;;;;5072845;28;20129;-76
2022/09/11 12:55:55;;;;;;;;;;;16.50;99.90;;;;;;5072804;28;19962;-76
2022/09/11 12:58:24;;;;;;;;;;;16.60;99.90;;;;;;5072739;28;19909;-75
2022/09/11 13:00:59;;;;;;;;;;;16.60;99.90;;;;;;5073545;28;19912;-76
2022/09/11 13:03:26;;;;;;;;;;;16.60;99.90;;;;;;5073919;28;19909;-76
2022/09/11 13:06:02;;;;;;;;;;;16.60;99.90;;;;;;5073219;28;20318;-75
2022/09/11 13:08:29;;;;;;;;;;;16.70;99.90;;;;;;5073604;28;19962;-76
2022/09/11 13:11:13;;;;;;;;;;;16.70;99.90;;;;;;5072707;28;19912;-75
2022/09/11 13:13:42;;;;;;;;;;;16.70;99.90;;;;;;5073187;28;20292;-76
2022/09/11 13:16:24;;;;;;;;;;;16.60;99.90;;;;;;5072801;28;20376;-76
2022/09/11 13:18:52;;;;;;;;;;;16.60;99.90;;;;;;5073522;28;19917;-76
2022/09/11 13:21:18;;;;;;;;;;;16.60;99.90;;;;;;5073101;28;19934;-76
2022/09/11 13:23:47;;;;;;;;;;;16.60;99.90;;;;;;5074894;28;20003;-75
2022/09/11 13:26:16;;;;;;;;;;;16.60;99.90;;;;;;5080886;28;20407;-75
2022/09/11 13:28:43;;;;;;;;;;;16.60;99.90;;;;;;5080190;28;20426;-75
2022/09/11 13:31:20;;;;;;;;;;;16.70;99.90;;;;;;5072015;28;20350;-75
2022/09/11 13:33:48;;;;;;;;;;;16.80;99.90;;;;;;5073016;28;19909;-76
2022/09/11 13:36:14;;;;;;;;;;;16.90;99.90;;;;;;5072565;28;19904;-76
2022/09/11 13:38:41;;;;;;;;;;;16.90;99.90;;;;;;5073031;28;19919;-76
2022/09/11 13:41:12;;;;;;;;;;;17.00;99.90;;;;;;5073453;28;20011;-76
2022/09/11 13:43:44;;;;;;;;;;;17.10;99.90;;;;;;5081544;28;19977;-76
2022/09/11 13:46:16;;;;;;;;;;;17.20;99.90;;;;;;5112758;27;19916;-74
2022/09/11 13:48:43;;;;;;;;;;;17.20;99.90;;;;;;5072044;28;20293;-75
2022/09/11 13:51:13;;;;;;;;;;;17.30;99.90;;;;;;5071194;28;20369;-75
2022/09/11 13:53:39;;;;;;;;;;;17.30;99.90;;;;;;5071713;28;19913;-74
2022/09/11 13:56:06;;;;;;;;;;;17.30;99.90;;;;;;5071917;28;20376;-75
2022/09/11 13:58:34;;;;;;;;;;;17.40;99.90;;;;;;5072647;28;19908;-75
2022/09/11 14:01:13;;;;;;;;;;;17.50;99.90;;;;;;5072176;28;19912;-75
2022/09/11 14:03:45;;;;;;;;;;;17.60;99.90;;;;;;5071596;28;20360;-75
2022/09/11 14:06:15;;;;;;;;;;;17.70;99.90;;;;;;5072196;28;19931;-75
2022/09/11 14:08:43;;;;;;;;;;;17.70;99.90;;;;;;5072263;28;19958;-75
2022/09/11 14:11:12;;;;;;;;;;;17.80;99.90;;;;;;5071867;28;19958;-75
2022/09/11 14:13:47;;;;;;;;;;;17.90;99.90;;;;;;5071525;28;19913;-74
2022/09/11 14:16:12;;;;;;;;;;;18.00;99.90;;;;;;5071878;28;19995;-75
2022/09/11 14:18:44;;;;;;;;;;;18.00;99.90;;;;;;5072423;28;20003;-76
2022/09/11 14:21:33;;;;;;;;;;;18.10;99.90;;;;;;5072107;28;19908;-74
2022/09/11 14:23:59;;;;;;;;;;;18.10;99.90;;;;;;5071393;28;19969;-75
2022/09/11 14:26:31;;;;;;;;;;;18.20;99.90;;;;;;5072172;28;19913;-73